Hutchinson County Airport - Borger, Texas, United States - FAA: BGD - ICAO: KBGD - IATA: BGD

 
  Longest Runway: 6,300 feet   Approach Types:    Customs Landing Rights Airport: No   Port of Entry: No

Local Forecast

Overnight (12/20): Areas of freezing fog. Mostly cloudy, with a low around 30. South wind 5 to 10 mph.

Sunday (12/20): Areas of freezing fog before 9am. Mostly sunny, with a high near 58. Wind chill values between 22 and 32 early. Southwest wind 5 to 10 mph.

Sunday Night (12/21): Partly cloudy, with a low around 40. South southwest wind 5 to 15 mph becoming west after midnight.

Monday (12/21): Partly sunny, with a high near 55. West northwest wind around 15 mph becoming north in the afternoon.

Monday Night (12/22): A chance of rain before 11pm, then a chance of rain and snow between 11pm and midnight, then a chance of snow after midnight. Mostly cloudy, with a low around 27. Blustery, with a north northwest wind 15 to 25 mph, with gusts as high as 30 mph. Chance of precipitation is 50%.

Tuesday (12/22): Mostly sunny, with a high near 43. Breezy, with a north northwest wind 20 to 25 mph, with gusts as high as 35 mph.

Tuesday Night (12/23): Mostly clear, with a low around 24. West northwest wind 10 to 15 mph, with gusts as high as 20 mph.



Current Weather (METAR)

2014/12/21 04:51 KBGD 210451Z AUTO 17010KT 10SM CLR 04/01 A2999 RMK AO2 SLP163 T00390011

BORGER HUTCHINSON CO AIRPORT , TX, United States (KBGD) 35-42N 101-24W 927M Dec 20, 2014 - 11:51 PM EST / 2014.12.21 0451 UTC Wind: from the S (170 degrees) at 12 MPH (10 KT):0 Visibility: 10 mile(s):0 Sky conditions: clear Temperature: 39.0 F (3.9 C) Dew Point: 34.0 F (1.1 C) Relative Humidity: 81% Pressure (altimeter): 29.99 in. Hg (1015 hPa) ob: KBGD 210451Z AUTO 17010KT 10SM CLR 04/01 A2999 RMK AO2 SLP163 T00390011 cycle: 5

Terminal Forecast (TAF)